sensor_id;sensor_type;location;lat;lon;timestamp;P1;durP1;ratioP1;P2;durP2;ratioP2
3066;SDS011;1544;48.834;9.194;2022-09-01T00:01:09;18.10;;;16.40;;
3066;SDS011;1544;48.834;9.194;2022-09-01T00:03:54;19.00;;;17.30;;
3066;SDS011;1544;48.834;9.194;2022-09-01T00:06:33;18.40;;;16.47;;
3066;SDS011;1544;48.834;9.194;2022-09-01T00:09:12;18.67;;;16.77;;
3066;SDS011;1544;48.834;9.194;2022-09-01T00:11:52;19.90;;;18.10;;
3066;SDS011;1544;48.834;9.194;2022-09-01T00:14:29;18.03;;;16.43;;
3066;SDS011;1544;48.834;9.194;2022-09-01T00:17:10;18.10;;;16.37;;
3066;SDS011;1544;48.834;9.194;2022-09-01T00:19:45;17.67;;;15.97;;
3066;SDS011;1544;48.834;9.194;2022-09-01T00:22:20;18.17;;;16.40;;
3066;SDS011;1544;48.834;9.194;2022-09-01T00:24:55;17.00;;;15.43;;
3066;SDS011;1544;48.834;9.194;2022-09-01T00:27:30;18.40;;;16.50;;
3066;SDS011;1544;48.834;9.194;2022-09-01T00:30:05;17.90;;;16.23;;
3066;SDS011;1544;48.834;9.194;2022-09-01T00:32:41;18.37;;;16.47;;
3066;SDS011;1544;48.834;9.194;2022-09-01T00:35:19;19.20;;;17.40;;
3066;SDS011;1544;48.834;9.194;2022-09-01T00:37:54;16.93;;;15.33;;
3066;SDS011;1544;48.834;9.194;2022-09-01T00:40:30;19.23;;;15.97;;
3066;SDS011;1544;48.834;9.194;2022-09-01T00:43:16;16.80;;;15.17;;
3066;SDS011;1544;48.834;9.194;2022-09-01T00:46:12;18.63;;;16.90;;
3066;SDS011;1544;48.834;9.194;2022-09-01T00:49:15;18.60;;;16.80;;
3066;SDS011;1544;48.834;9.194;2022-09-01T00:52:04;17.73;;;15.93;;
3066;SDS011;1544;48.834;9.194;2022-09-01T00:54:46;18.77;;;16.80;;
3066;SDS011;1544;48.834;9.194;2022-09-01T00:57:24;17.03;;;15.33;;
3066;SDS011;1544;48.834;9.194;2022-09-01T01:00:08;16.70;;;15.10;;
3066;SDS011;1544;48.834;9.194;2022-09-01T01:02:54;17.80;;;16.20;;
3066;SDS011;1544;48.834;9.194;2022-09-01T01:05:31;17.80;;;16.00;;
3066;SDS011;1544;48.834;9.194;2022-09-01T01:08:13;18.17;;;16.47;;
3066;SDS011;1544;48.834;9.194;2022-09-01T01:10:51;15.60;;;14.10;;
3066;SDS011;1544;48.834;9.194;2022-09-01T01:13:26;15.90;;;14.30;;
3066;SDS011;1544;48.834;9.194;2022-09-01T01:16:09;16.60;;;14.90;;
3066;SDS011;1544;48.834;9.194;2022-09-01T01:18:45;16.13;;;14.63;;
3066;SDS011;1544;48.834;9.194;2022-09-01T01:21:22;18.00;;;16.40;;
3066;SDS011;1544;48.834;9.194;2022-09-01T01:24:24;15.80;;;14.40;;
3066;SDS011;1544;48.834;9.194;2022-09-01T01:27:07;17.37;;;15.57;;
3066;SDS011;1544;48.834;9.194;2022-09-01T01:29:42;17.60;;;16.00;;
3066;SDS011;1544;48.834;9.194;2022-09-01T01:32:17;15.57;;;14.27;;
3066;SDS011;1544;48.834;9.194;2022-09-01T01:34:54;16.07;;;14.47;;
3066;SDS011;1544;48.834;9.194;2022-09-01T01:37:29;15.97;;;14.57;;
3066;SDS011;1544;48.834;9.194;2022-09-01T01:40:08;19.90;;;15.93;;
3066;SDS011;1544;48.834;9.194;2022-09-01T01:42:50;15.70;;;14.30;;
3066;SDS011;1544;48.834;9.194;2022-09-01T01:45:27;16.33;;;14.77;;
3066;SDS011;1544;48.834;9.194;2022-09-01T01:48:04;16.23;;;14.67;;
3066;SDS011;1544;48.834;9.194;2022-09-01T01:50:40;16.03;;;14.53;;
3066;SDS011;1544;48.834;9.194;2022-09-01T01:53:21;17.00;;;15.50;;
3066;SDS011;1544;48.834;9.194;2022-09-01T01:55:57;16.20;;;14.50;;
3066;SDS011;1544;48.834;9.194;2022-09-01T01:58:38;15.60;;;14.20;;
3066;SDS011;1544;48.834;9.194;2022-09-01T02:01:17;17.07;;;15.37;;
3066;SDS011;1544;48.834;9.194;2022-09-01T02:03:56;15.67;;;14.17;;
3066;SDS011;1544;48.834;9.194;2022-09-01T02:06:34;15.60;;;14.30;;
3066;SDS011;1544;48.834;9.194;2022-09-01T02:09:11;15.23;;;13.83;;
3066;SDS011;1544;48.834;9.194;2022-09-01T02:11:49;15.97;;;14.50;;
3066;SDS011;1544;48.834;9.194;2022-09-01T02:14:31;16.13;;;14.63;;
3066;SDS011;1544;48.834;9.194;2022-09-01T02:17:06;15.50;;;14.10;;
3066;SDS011;1544;48.834;9.194;2022-09-01T02:19:42;17.00;;;15.40;;
3066;SDS011;1544;48.834;9.194;2022-09-01T02:22:17;18.40;;;16.60;;
3066;SDS011;1544;48.834;9.194;2022-09-01T02:24:54;16.47;;;15.07;;
3066;SDS011;1544;48.834;9.194;2022-09-01T02:27:31;16.87;;;15.17;;
3066;SDS011;1544;48.834;9.194;2022-09-01T02:30:08;16.20;;;14.57;;
3066;SDS011;1544;48.834;9.194;2022-09-01T02:32:44;16.60;;;15.07;;
3066;SDS011;1544;48.834;9.194;2022-09-01T02:35:20;16.87;;;15.37;;
3066;SDS011;1544;48.834;9.194;2022-09-01T02:37:55;17.20;;;15.43;;
3066;SDS011;1544;48.834;9.194;2022-09-01T02:40:34;17.47;;;15.83;;
3066;SDS011;1544;48.834;9.194;2022-09-01T02:43:10;15.83;;;14.40;;
3066;SDS011;1544;48.834;9.194;2022-09-01T02:45:48;16.37;;;14.93;;
3066;SDS011;1544;48.834;9.194;2022-09-01T02:48:32;17.37;;;15.67;;
3066;SDS011;1544;48.834;9.194;2022-09-01T02:51:14;15.90;;;14.40;;
3066;SDS011;1544;48.834;9.194;2022-09-01T02:53:52;16.73;;;15.10;;
3066;SDS011;1544;48.834;9.194;2022-09-01T02:56:28;17.47;;;15.67;;
3066;SDS011;1544;48.834;9.194;2022-09-01T02:59:03;15.80;;;14.40;;
3066;SDS011;1544;48.834;9.194;2022-09-01T03:01:39;16.50;;;15.00;;
3066;SDS011;1544;48.834;9.194;2022-09-01T03:04:14;17.87;;;16.27;;
3066;SDS011;1544;48.834;9.194;2022-09-01T03:06:50;15.83;;;14.37;;
3066;SDS011;1544;48.834;9.194;2022-09-01T03:09:28;15.40;;;14.00;;
3066;SDS011;1544;48.834;9.194;2022-09-01T03:12:05;16.60;;;14.90;;
3066;SDS011;1544;48.834;9.194;2022-09-01T03:14:41;17.07;;;15.33;;
3066;SDS011;1544;48.834;9.194;2022-09-01T03:17:16;18.43;;;16.70;;
3066;SDS011;1544;48.834;9.194;2022-09-01T03:19:52;18.10;;;16.30;;
3066;SDS011;1544;48.834;9.194;2022-09-01T03:22:27;17.20;;;15.50;;
3066;SDS011;1544;48.834;9.194;2022-09-01T03:25:02;18.10;;;16.30;;
3066;SDS011;1544;48.834;9.194;2022-09-01T03:27:38;18.23;;;16.63;;
3066;SDS011;1544;48.834;9.194;2022-09-01T03:30:14;17.57;;;15.80;;
3066;SDS011;1544;48.834;9.194;2022-09-01T03:32:51;17.90;;;16.10;;
3066;SDS011;1544;48.834;9.194;2022-09-01T03:35:26;19.50;;;17.60;;
3066;SDS011;1544;48.834;9.194;2022-09-01T03:38:06;18.13;;;16.20;;
3066;SDS011;1544;48.834;9.194;2022-09-01T03:40:41;19.00;;;17.00;;
3066;SDS011;1544;48.834;9.194;2022-09-01T03:43:16;19.70;;;17.70;;
3066;SDS011;1544;48.834;9.194;2022-09-01T03:45:53;22.70;;;20.50;;
3066;SDS011;1544;48.834;9.194;2022-09-01T03:48:34;21.93;;;19.90;;
3066;SDS011;1544;48.834;9.194;2022-09-01T03:51:09;21.30;;;19.20;;
3066;SDS011;1544;48.834;9.194;2022-09-01T03:53:48;18.30;;;16.60;;
3066;SDS011;1544;48.834;9.194;2022-09-01T03:56:28;20.00;;;18.00;;
3066;SDS011;1544;48.834;9.194;2022-09-01T03:59:03;20.00;;;17.87;;
3066;SDS011;1544;48.834;9.194;2022-09-01T04:01:41;19.30;;;17.30;;
3066;SDS011;1544;48.834;9.194;2022-09-01T04:04:17;21.57;;;19.47;;
3066;SDS011;1544;48.834;9.194;2022-09-01T04:06:52;20.07;;;17.97;;
3066;SDS011;1544;48.834;9.194;2022-09-01T04:09:27;19.60;;;17.70;;
3066;SDS011;1544;48.834;9.194;2022-09-01T04:12:03;23.00;;;20.60;;
3066;SDS011;1544;48.834;9.194;2022-09-01T04:14:45;20.30;;;18.20;;
3066;SDS011;1544;48.834;9.194;2022-09-01T04:17:21;19.10;;;17.10;;
3066;SDS011;1544;48.834;9.194;2022-09-01T04:20:15;19.70;;;17.63;;
3066;SDS011;1544;48.834;9.194;2022-09-01T04:22:54;20.20;;;18.07;;
3066;SDS011;1544;48.834;9.194;2022-09-01T04:25:32;19.60;;;17.70;;
3066;SDS011;1544;48.834;9.194;2022-09-01T04:28:07;20.77;;;18.73;;
3066;SDS011;1544;48.834;9.194;2022-09-01T04:30:52;25.23;;;19.13;;
3066;SDS011;1544;48.834;9.194;2022-09-01T04:33:31;20.17;;;18.27;;
3066;SDS011;1544;48.834;9.194;2022-09-01T04:38:59;22.33;;;18.87;;
3066;SDS011;1544;48.834;9.194;2022-09-01T04:41:45;22.87;;;20.27;;
3066;SDS011;1544;48.834;9.194;2022-09-01T04:44:20;22.13;;;19.77;;
3066;SDS011;1544;48.834;9.194;2022-09-01T04:46:56;22.67;;;19.40;;
3066;SDS011;1544;48.834;9.194;2022-09-01T04:49:31;24.13;;;20.13;;
3066;SDS011;1544;48.834;9.194;2022-09-01T04:52:07;20.57;;;18.30;;
3066;SDS011;1544;48.834;9.194;2022-09-01T04:54:42;21.73;;;19.43;;
3066;SDS011;1544;48.834;9.194;2022-09-01T04:57:18;22.03;;;19.73;;
3066;SDS011;1544;48.834;9.194;2022-09-01T04:59:56;20.17;;;18.17;;
3066;SDS011;1544;48.834;9.194;2022-09-01T05:02:31;21.67;;;18.90;;
3066;SDS011;1544;48.834;9.194;2022-09-01T05:05:07;20.60;;;18.47;;
3066;SDS011;1544;48.834;9.194;2022-09-01T05:07:47;19.67;;;17.67;;
3066;SDS011;1544;48.834;9.194;2022-09-01T05:10:29;22.03;;;19.83;;
3066;SDS011;1544;48.834;9.194;2022-09-01T05:13:21;20.40;;;18.30;;
3066;SDS011;1544;48.834;9.194;2022-09-01T05:16:01;19.80;;;17.80;;
3066;SDS011;1544;48.834;9.194;2022-09-01T05:18:42;20.23;;;18.23;;
3066;SDS011;1544;48.834;9.194;2022-09-01T05:21:22;22.10;;;19.77;;
3066;SDS011;1544;48.834;9.194;2022-09-01T05:24:01;22.97;;;20.43;;
3066;SDS011;1544;48.834;9.194;2022-09-01T05:26:39;22.27;;;19.90;;
3066;SDS011;1544;48.834;9.194;2022-09-01T05:29:16;22.80;;;20.37;;
3066;SDS011;1544;48.834;9.194;2022-09-01T05:31:54;22.17;;;19.93;;
3066;SDS011;1544;48.834;9.194;2022-09-01T05:34:30;21.23;;;18.77;;
3066;SDS011;1544;48.834;9.194;2022-09-01T05:37:07;20.20;;;18.10;;
3066;SDS011;1544;48.834;9.194;2022-09-01T05:39:47;20.03;;;18.13;;
3066;SDS011;1544;48.834;9.194;2022-09-01T05:42:22;22.87;;;20.57;;
3066;SDS011;1544;48.834;9.194;2022-09-01T05:44:58;23.40;;;21.10;;
3066;SDS011;1544;48.834;9.194;2022-09-01T05:47:35;24.17;;;21.70;;
3066;SDS011;1544;48.834;9.194;2022-09-01T05:50:11;24.30;;;20.90;;
3066;SDS011;1544;48.834;9.194;2022-09-01T05:52:49;22.40;;;20.10;;
3066;SDS011;1544;48.834;9.194;2022-09-01T05:55:24;23.43;;;21.20;;
3066;SDS011;1544;48.834;9.194;2022-09-01T05:58:02;21.53;;;19.33;;
3066;SDS011;1544;48.834;9.194;2022-09-01T06:00:38;21.70;;;19.50;;
3066;SDS011;1544;48.834;9.194;2022-09-01T06:03:16;21.20;;;19.10;;
3066;SDS011;1544;48.834;9.194;2022-09-01T06:05:53;22.00;;;19.90;;
3066;SDS011;1544;48.834;9.194;2022-09-01T06:08:30;22.23;;;19.90;;
3066;SDS011;1544;48.834;9.194;2022-09-01T06:11:05;20.87;;;18.77;;
3066;SDS011;1544;48.834;9.194;2022-09-01T06:13:45;22.17;;;19.97;;
3066;SDS011;1544;48.834;9.194;2022-09-01T06:16:21;22.27;;;19.97;;
3066;SDS011;1544;48.834;9.194;2022-09-01T06:19:00;20.97;;;18.90;;
3066;SDS011;1544;48.834;9.194;2022-09-01T06:21:37;23.20;;;20.80;;
3066;SDS011;1544;48.834;9.194;2022-09-01T06:24:13;25.17;;;22.57;;
3066;SDS011;1544;48.834;9.194;2022-09-01T06:26:48;21.70;;;19.70;;
3066;SDS011;1544;48.834;9.194;2022-09-01T06:29:23;18.27;;;16.43;;
3066;SDS011;1544;48.834;9.194;2022-09-01T06:31:58;17.93;;;16.20;;
3066;SDS011;1544;48.834;9.194;2022-09-01T06:34:37;16.17;;;14.77;;
3066;SDS011;1544;48.834;9.194;2022-09-01T06:37:18;16.63;;;14.93;;
3066;SDS011;1544;48.834;9.194;2022-09-01T06:40:01;18.67;;;16.77;;
3066;SDS011;1544;48.834;9.194;2022-09-01T06:42:39;20.17;;;18.07;;
3066;SDS011;1544;48.834;9.194;2022-09-01T06:45:15;24.10;;;19.13;;
3066;SDS011;1544;48.834;9.194;2022-09-01T06:47:54;18.63;;;16.73;;
3066;SDS011;1544;48.834;9.194;2022-09-01T06:50:34;23.43;;;20.37;;
3066;SDS011;1544;48.834;9.194;2022-09-01T06:53:31;17.77;;;16.07;;
3066;SDS011;1544;48.834;9.194;2022-09-01T06:56:11;19.80;;;17.70;;
3066;SDS011;1544;48.834;9.194;2022-09-01T06:58:47;19.63;;;16.83;;
3066;SDS011;1544;48.834;9.194;2022-09-01T07:01:23;15.97;;;14.37;;
3066;SDS011;1544;48.834;9.194;2022-09-01T07:04:01;15.93;;;14.30;;
3066;SDS011;1544;48.834;9.194;2022-09-01T07:06:50;18.50;;;16.60;;
3066;SDS011;1544;48.834;9.194;2022-09-01T07:09:53;18.17;;;16.27;;
3066;SDS011;1544;48.834;9.194;2022-09-01T07:12:55;17.00;;;15.40;;
3066;SDS011;1544;48.834;9.194;2022-09-01T07:15:40;14.20;;;12.80;;
3066;SDS011;1544;48.834;9.194;2022-09-01T07:18:42;17.00;;;15.30;;
3066;SDS011;1544;48.834;9.194;2022-09-01T07:21:32;20.23;;;17.50;;
3066;SDS011;1544;48.834;9.194;2022-09-01T07:24:15;17.43;;;15.70;;
3066;SDS011;1544;48.834;9.194;2022-09-01T07:27:16;20.17;;;17.23;;
3066;SDS011;1544;48.834;9.194;2022-09-01T07:29:59;16.97;;;15.27;;
3066;SDS011;1544;48.834;9.194;2022-09-01T07:32:35;15.40;;;13.80;;
3066;SDS011;1544;48.834;9.194;2022-09-01T07:35:20;16.30;;;14.80;;
3066;SDS011;1544;48.834;9.194;2022-09-01T07:37:57;15.63;;;14.00;;
3066;SDS011;1544;48.834;9.194;2022-09-01T07:40:52;13.80;;;12.47;;
3066;SDS011;1544;48.834;9.194;2022-09-01T07:44:20;14.40;;;13.00;;
3066;SDS011;1544;48.834;9.194;2022-09-01T07:47:14;12.40;;;11.23;;
3066;SDS011;1544;48.834;9.194;2022-09-01T07:50:11;13.30;;;12.10;;
3066;SDS011;1544;48.834;9.194;2022-09-01T07:53:09;12.43;;;11.23;;
3066;SDS011;1544;48.834;9.194;2022-09-01T07:55:47;14.23;;;12.93;;
3066;SDS011;1544;48.834;9.194;2022-09-01T07:58:26;11.37;;;10.47;;
3066;SDS011;1544;48.834;9.194;2022-09-01T08:01:09;11.70;;;10.70;;
3066;SDS011;1544;48.834;9.194;2022-09-01T08:03:55;11.50;;;10.40;;
3066;SDS011;1544;48.834;9.194;2022-09-01T08:06:33;9.83;;;8.93;;
3066;SDS011;1544;48.834;9.194;2022-09-01T08:09:13;10.03;;;9.23;;
3066;SDS011;1544;48.834;9.194;2022-09-01T08:12:06;11.37;;;10.27;;
3066;SDS011;1544;48.834;9.194;2022-09-01T08:14:54;12.83;;;11.73;;
3066;SDS011;1544;48.834;9.194;2022-09-01T08:17:51;12.13;;;10.93;;
3066;SDS011;1544;48.834;9.194;2022-09-01T08:20:29;13.03;;;11.73;;
3066;SDS011;1544;48.834;9.194;2022-09-01T08:23:24;8.67;;;7.90;;
3066;SDS011;1544;48.834;9.194;2022-09-01T08:26:04;9.53;;;8.63;;
3066;SDS011;1544;48.834;9.194;2022-09-01T08:28:46;8.67;;;7.97;;
3066;SDS011;1544;48.834;9.194;2022-09-01T08:31:36;9.43;;;8.57;;
3066;SDS011;1544;48.834;9.194;2022-09-01T08:34:12;8.87;;;7.97;;
3066;SDS011;1544;48.834;9.194;2022-09-01T08:36:48;8.03;;;7.40;;
3066;SDS011;1544;48.834;9.194;2022-09-01T08:39:23;7.17;;;6.60;;
3066;SDS011;1544;48.834;9.194;2022-09-01T08:46:05;8.87;;;8.13;;
3066;SDS011;1544;48.834;9.194;2022-09-01T08:48:36;8.00;;;7.30;;
3066;SDS011;1544;48.834;9.194;2022-09-01T08:51:56;7.80;;;7.10;;
3066;SDS011;1544;48.834;9.194;2022-09-01T08:54:47;6.97;;;6.57;;
3066;SDS011;1544;48.834;9.194;2022-09-01T08:57:38;6.50;;;6.10;;
3066;SDS011;1544;48.834;9.194;2022-09-01T09:00:28;6.27;;;5.80;;
3066;SDS011;1544;48.834;9.194;2022-09-01T09:09:56;3.10;;;3.00;;
3066;SDS011;1544;48.834;9.194;2022-09-01T09:12:48;4.50;;;4.27;;
3066;SDS011;1544;48.834;9.194;2022-09-01T09:15:54;4.70;;;4.50;;
3066;SDS011;1544;48.834;9.194;2022-09-01T09:21:38;4.90;;;4.60;;
3066;SDS011;1544;48.834;9.194;2022-09-01T09:27:26;5.57;;;5.20;;
3066;SDS011;1544;48.834;9.194;2022-09-01T09:33:01;5.40;;;5.00;;
3066;SDS011;1544;48.834;9.194;2022-09-01T09:36:16;4.57;;;4.27;;
3066;SDS011;1544;48.834;9.194;2022-09-01T09:39:13;5.13;;;4.83;;
3066;SDS011;1544;48.834;9.194;2022-09-01T09:42:05;5.40;;;5.00;;
3066;SDS011;1544;48.834;9.194;2022-09-01T09:44:47;4.90;;;4.60;;
3066;SDS011;1544;48.834;9.194;2022-09-01T09:47:37;5.00;;;4.70;;
3066;SDS011;1544;48.834;9.194;2022-09-01T09:50:21;4.97;;;4.67;;
3066;SDS011;1544;48.834;9.194;2022-09-01T09:56:17;5.27;;;4.80;;
3066;SDS011;1544;48.834;9.194;2022-09-01T09:58:57;4.70;;;4.50;;
3066;SDS011;1544;48.834;9.194;2022-09-01T10:01:32;4.90;;;4.60;;
3066;SDS011;1544;48.834;9.194;2022-09-01T10:04:07;4.70;;;4.40;;
3066;SDS011;1544;48.834;9.194;2022-09-01T10:06:43;4.40;;;4.10;;
3066;SDS011;1544;48.834;9.194;2022-09-01T10:11:55;3.73;;;3.53;;
3066;SDS011;1544;48.834;9.194;2022-09-01T10:14:40;4.80;;;4.50;;
3066;SDS011;1544;48.834;9.194;2022-09-01T10:20:15;4.10;;;3.90;;
3066;SDS011;1544;48.834;9.194;2022-09-01T10:22:57;4.40;;;4.13;;
3066;SDS011;1544;48.834;9.194;2022-09-01T10:25:32;4.30;;;4.10;;
3066;SDS011;1544;48.834;9.194;2022-09-01T10:28:14;4.20;;;4.00;;
3066;SDS011;1544;48.834;9.194;2022-09-01T10:30:58;3.20;;;3.10;;
3066;SDS011;1544;48.834;9.194;2022-09-01T10:33:36;3.93;;;3.73;;
3066;SDS011;1544;48.834;9.194;2022-09-01T10:36:13;4.30;;;4.10;;
3066;SDS011;1544;48.834;9.194;2022-09-01T10:38:50;3.87;;;3.57;;
3066;SDS011;1544;48.834;9.194;2022-09-01T10:44:20;4.10;;;3.90;;
3066;SDS011;1544;48.834;9.194;2022-09-01T10:53:09;3.17;;;3.07;;
3066;SDS011;1544;48.834;9.194;2022-09-01T10:55:46;3.40;;;3.20;;
3066;SDS011;1544;48.834;9.194;2022-09-01T10:58:42;2.83;;;2.73;;
3066;SDS011;1544;48.834;9.194;2022-09-01T11:07:38;3.47;;;3.23;;
3066;SDS011;1544;48.834;9.194;2022-09-01T11:10:42;3.27;;;3.07;;
3066;SDS011;1544;48.834;9.194;2022-09-01T11:13:49;4.03;;;3.60;;
3066;SDS011;1544;48.834;9.194;2022-09-01T11:16:33;3.57;;;3.37;;
3066;SDS011;1544;48.834;9.194;2022-09-01T11:19:27;3.60;;;3.40;;
3066;SDS011;1544;48.834;9.194;2022-09-01T11:33:42;3.00;;;2.90;;
3066;SDS011;1544;48.834;9.194;2022-09-01T11:39:45;2.57;;;2.20;;
3066;SDS011;1544;48.834;9.194;2022-09-01T11:42:24;2.83;;;2.63;;
3066;SDS011;1544;48.834;9.194;2022-09-01T11:45:13;2.53;;;2.33;;
3066;SDS011;1544;48.834;9.194;2022-09-01T11:47:56;2.37;;;2.27;;
3066;SDS011;1544;48.834;9.194;2022-09-01T11:50:40;2.50;;;2.40;;
3066;SDS011;1544;48.834;9.194;2022-09-01T11:53:20;2.90;;;2.77;;
3066;SDS011;1544;48.834;9.194;2022-09-01T11:56:10;2.50;;;2.30;;
3066;SDS011;1544;48.834;9.194;2022-09-01T11:59:12;2.67;;;2.47;;
3066;SDS011;1544;48.834;9.194;2022-09-01T12:01:47;2.60;;;2.50;;
3066;SDS011;1544;48.834;9.194;2022-09-01T12:04:24;2.80;;;2.60;;
3066;SDS011;1544;48.834;9.194;2022-09-01T12:07:07;3.17;;;2.60;;
3066;SDS011;1544;48.834;9.194;2022-09-01T12:09:46;2.60;;;2.50;;
3066;SDS011;1544;48.834;9.194;2022-09-01T12:12:29;3.00;;;2.90;;
3066;SDS011;1544;48.834;9.194;2022-09-01T12:15:19;3.03;;;2.73;;
3066;SDS011;1544;48.834;9.194;2022-09-01T12:20:59;2.13;;;2.03;;
3066;SDS011;1544;48.834;9.194;2022-09-01T12:23:38;2.40;;;2.20;;
3066;SDS011;1544;48.834;9.194;2022-09-01T12:26:17;1.90;;;1.80;;
3066;SDS011;1544;48.834;9.194;2022-09-01T12:29:01;2.10;;;2.00;;
3066;SDS011;1544;48.834;9.194;2022-09-01T12:31:39;2.53;;;2.43;;
3066;SDS011;1544;48.834;9.194;2022-09-01T12:37:08;2.00;;;1.90;;
3066;SDS011;1544;48.834;9.194;2022-09-01T12:39:58;2.63;;;2.53;;
3066;SDS011;1544;48.834;9.194;2022-09-01T12:42:33;2.53;;;2.33;;
3066;SDS011;1544;48.834;9.194;2022-09-01T12:45:15;2.30;;;2.10;;
3066;SDS011;1544;48.834;9.194;2022-09-01T12:48:24;2.00;;;1.90;;
3066;SDS011;1544;48.834;9.194;2022-09-01T12:51:20;2.10;;;2.00;;
3066;SDS011;1544;48.834;9.194;2022-09-01T12:54:04;2.40;;;2.30;;
3066;SDS011;1544;48.834;9.194;2022-09-01T12:56:46;2.47;;;2.37;;
3066;SDS011;1544;48.834;9.194;2022-09-01T12:59:24;2.87;;;2.10;;
3066;SDS011;1544;48.834;9.194;2022-09-01T13:02:26;2.03;;;1.93;;
3066;SDS011;1544;48.834;9.194;2022-09-01T13:08:17;3.07;;;2.87;;
3066;SDS011;1544;48.834;9.194;2022-09-01T13:11:02;2.50;;;2.40;;
3066;SDS011;1544;48.834;9.194;2022-09-01T13:13:41;2.43;;;2.33;;
3066;SDS011;1544;48.834;9.194;2022-09-01T13:16:16;2.40;;;2.30;;
3066;SDS011;1544;48.834;9.194;2022-09-01T13:18:51;2.60;;;2.23;;
3066;SDS011;1544;48.834;9.194;2022-09-01T13:21:46;2.03;;;1.93;;
3066;SDS011;1544;48.834;9.194;2022-09-01T13:24:21;2.03;;;1.93;;
3066;SDS011;1544;48.834;9.194;2022-09-01T13:27:03;2.07;;;1.97;;
3066;SDS011;1544;48.834;9.194;2022-09-01T13:29:55;2.13;;;2.03;;
3066;SDS011;1544;48.834;9.194;2022-09-01T13:32:30;2.13;;;2.03;;
3066;SDS011;1544;48.834;9.194;2022-09-01T13:35:05;2.40;;;2.30;;
3066;SDS011;1544;48.834;9.194;2022-09-01T13:37:41;3.03;;;2.93;;
3066;SDS011;1544;48.834;9.194;2022-09-01T13:40:18;2.70;;;2.60;;
3066;SDS011;1544;48.834;9.194;2022-09-01T13:42:55;3.60;;;2.40;;
3066;SDS011;1544;48.834;9.194;2022-09-01T13:45:30;2.77;;;2.67;;
3066;SDS011;1544;48.834;9.194;2022-09-01T13:48:05;2.60;;;2.50;;
3066;SDS011;1544;48.834;9.194;2022-09-01T13:50:50;2.40;;;2.30;;
3066;SDS011;1544;48.834;9.194;2022-09-01T13:53:46;2.93;;;2.83;;
3066;SDS011;1544;48.834;9.194;2022-09-01T13:56:21;2.40;;;2.30;;
3066;SDS011;1544;48.834;9.194;2022-09-01T13:58:56;2.90;;;2.80;;
3066;SDS011;1544;48.834;9.194;2022-09-01T14:01:31;2.30;;;2.20;;
3066;SDS011;1544;48.834;9.194;2022-09-01T14:04:06;2.80;;;2.60;;
3066;SDS011;1544;48.834;9.194;2022-09-01T14:06:42;2.90;;;2.70;;
3066;SDS011;1544;48.834;9.194;2022-09-01T14:09:18;2.13;;;2.03;;
3066;SDS011;1544;48.834;9.194;2022-09-01T14:11:53;2.17;;;2.07;;
3066;SDS011;1544;48.834;9.194;2022-09-01T14:14:29;3.30;;;2.20;;
3066;SDS011;1544;48.834;9.194;2022-09-01T14:17:24;2.73;;;2.63;;
3066;SDS011;1544;48.834;9.194;2022-09-01T14:20:00;2.50;;;2.30;;
3066;SDS011;1544;48.834;9.194;2022-09-01T14:22:35;2.43;;;2.23;;
3066;SDS011;1544;48.834;9.194;2022-09-01T14:25:12;2.37;;;2.27;;
3066;SDS011;1544;48.834;9.194;2022-09-01T14:27:48;3.00;;;2.80;;
3066;SDS011;1544;48.834;9.194;2022-09-01T14:30:25;2.70;;;2.57;;
3066;SDS011;1544;48.834;9.194;2022-09-01T14:33:05;2.70;;;2.60;;
3066;SDS011;1544;48.834;9.194;2022-09-01T14:35:42;2.30;;;2.20;;
3066;SDS011;1544;48.834;9.194;2022-09-01T14:38:19;2.67;;;2.57;;
3066;SDS011;1544;48.834;9.194;2022-09-01T14:40:55;2.40;;;2.30;;
3066;SDS011;1544;48.834;9.194;2022-09-01T14:43:30;3.33;;;2.80;;
3066;SDS011;1544;48.834;9.194;2022-09-01T14:46:06;2.70;;;2.60;;
3066;SDS011;1544;48.834;9.194;2022-09-01T14:48:44;2.80;;;2.60;;
3066;SDS011;1544;48.834;9.194;2022-09-01T14:51:22;2.67;;;2.57;;
3066;SDS011;1544;48.834;9.194;2022-09-01T14:54:20;2.17;;;2.07;;
3066;SDS011;1544;48.834;9.194;2022-09-01T14:56:55;2.90;;;2.23;;
3066;SDS011;1544;48.834;9.194;2022-09-01T14:59:50;1.93;;;1.83;;
3066;SDS011;1544;48.834;9.194;2022-09-01T15:02:26;2.60;;;2.50;;
3066;SDS011;1544;48.834;9.194;2022-09-01T15:05:02;2.07;;;1.97;;
3066;SDS011;1544;48.834;9.194;2022-09-01T15:07:39;2.10;;;2.00;;
3066;SDS011;1544;48.834;9.194;2022-09-01T15:10:16;2.60;;;2.47;;
3066;SDS011;1544;48.834;9.194;2022-09-01T15:12:59;1.90;;;1.80;;
3066;SDS011;1544;48.834;9.194;2022-09-01T15:15:35;2.60;;;1.87;;
3066;SDS011;1544;48.834;9.194;2022-09-01T15:18:11;2.00;;;1.90;;
3066;SDS011;1544;48.834;9.194;2022-09-01T15:20:47;1.87;;;1.77;;
3066;SDS011;1544;48.834;9.194;2022-09-01T15:23:24;1.90;;;1.80;;
3066;SDS011;1544;48.834;9.194;2022-09-01T15:26:00;2.27;;;2.17;;
3066;SDS011;1544;48.834;9.194;2022-09-01T15:28:35;1.93;;;1.83;;
3066;SDS011;1544;48.834;9.194;2022-09-01T15:31:10;2.07;;;1.57;;
3066;SDS011;1544;48.834;9.194;2022-09-01T15:33:49;1.83;;;1.73;;
3066;SDS011;1544;48.834;9.194;2022-09-01T15:36:25;1.83;;;1.73;;
3066;SDS011;1544;48.834;9.194;2022-09-01T15:39:02;2.07;;;1.97;;
3066;SDS011;1544;48.834;9.194;2022-09-01T15:41:37;1.90;;;1.80;;
3066;SDS011;1544;48.834;9.194;2022-09-01T15:44:13;2.67;;;2.47;;
3066;SDS011;1544;48.834;9.194;2022-09-01T15:46:48;1.90;;;1.80;;
3066;SDS011;1544;48.834;9.194;2022-09-01T15:49:24;1.73;;;1.63;;
3066;SDS011;1544;48.834;9.194;2022-09-01T15:51:59;2.10;;;1.90;;
3066;SDS011;1544;48.834;9.194;2022-09-01T15:54:37;2.17;;;2.07;;
3066;SDS011;1544;48.834;9.194;2022-09-01T15:57:12;2.23;;;2.10;;
3066;SDS011;1544;48.834;9.194;2022-09-01T15:59:47;2.17;;;2.00;;
3066;SDS011;1544;48.834;9.194;2022-09-01T16:02:23;2.03;;;1.93;;
3066;SDS011;1544;48.834;9.194;2022-09-01T16:05:00;2.40;;;2.20;;
3066;SDS011;1544;48.834;9.194;2022-09-01T16:07:35;2.23;;;2.13;;
3066;SDS011;1544;48.834;9.194;2022-09-01T16:10:11;2.20;;;2.10;;
3066;SDS011;1544;48.834;9.194;2022-09-01T16:12:47;2.30;;;2.20;;
3066;SDS011;1544;48.834;9.194;2022-09-01T16:15:25;2.87;;;2.17;;
3066;SDS011;1544;48.834;9.194;2022-09-01T16:21:10;2.10;;;2.00;;
3066;SDS011;1544;48.834;9.194;2022-09-01T16:24:07;1.93;;;1.83;;
3066;SDS011;1544;48.834;9.194;2022-09-01T16:26:47;2.10;;;2.00;;
3066;SDS011;1544;48.834;9.194;2022-09-01T16:29:28;2.00;;;1.80;;
3066;SDS011;1544;48.834;9.194;2022-09-01T16:32:18;2.20;;;2.10;;
3066;SDS011;1544;48.834;9.194;2022-09-01T16:34:56;2.07;;;1.97;;
3066;SDS011;1544;48.834;9.194;2022-09-01T16:40:55;2.27;;;2.17;;
3066;SDS011;1544;48.834;9.194;2022-09-01T16:52:32;2.70;;;2.60;;
3066;SDS011;1544;48.834;9.194;2022-09-01T16:58:45;2.50;;;2.30;;
3066;SDS011;1544;48.834;9.194;2022-09-01T17:04:47;2.10;;;2.00;;
3066;SDS011;1544;48.834;9.194;2022-09-01T17:07:30;2.10;;;2.00;;
3066;SDS011;1544;48.834;9.194;2022-09-01T17:13:18;2.90;;;2.80;;
3066;SDS011;1544;48.834;9.194;2022-09-01T17:16:19;2.50;;;2.40;;
3066;SDS011;1544;48.834;9.194;2022-09-01T17:19:00;3.07;;;2.87;;
3066;SDS011;1544;48.834;9.194;2022-09-01T17:21:47;3.37;;;3.17;;
3066;SDS011;1544;48.834;9.194;2022-09-01T17:24:42;3.30;;;3.10;;
3066;SDS011;1544;48.834;9.194;2022-09-01T17:30:06;3.07;;;2.97;;
3066;SDS011;1544;48.834;9.194;2022-09-01T17:36:28;3.53;;;3.33;;
3066;SDS011;1544;48.834;9.194;2022-09-01T17:39:12;3.50;;;3.40;;
3066;SDS011;1544;48.834;9.194;2022-09-01T17:42:02;3.50;;;3.30;;
3066;SDS011;1544;48.834;9.194;2022-09-01T17:44:58;3.70;;;3.50;;
3066;SDS011;1544;48.834;9.194;2022-09-01T17:57:20;3.53;;;3.33;;
3066;SDS011;1544;48.834;9.194;2022-09-01T18:00:20;3.50;;;3.30;;
3066;SDS011;1544;48.834;9.194;2022-09-01T18:03:04;4.67;;;4.27;;
3066;SDS011;1544;48.834;9.194;2022-09-01T18:08:43;3.63;;;3.43;;
3066;SDS011;1544;48.834;9.194;2022-09-01T18:11:38;4.37;;;4.17;;
3066;SDS011;1544;48.834;9.194;2022-09-01T18:14:36;3.60;;;3.30;;
3066;SDS011;1544;48.834;9.194;2022-09-01T18:17:30;3.60;;;3.40;;
3066;SDS011;1544;48.834;9.194;2022-09-01T18:20:11;3.47;;;3.27;;